Time;durP1;ratioP1;P1;durP2;ratioP2;P2;SDS_P1;SDS_P2;PMS_P1;PMS_P2;Temp;Humidity;BMP_temperature;BMP_pressure;BME280_temperature;BME280_humidity;BME280_pressure;Samples;Min_cycle;Max_cycle;Signal;HPM_P1;HPM_P2
2023/05/20 00:02:56;;;;;;;1.40;1.17;;;;;;;14.29;50.24;102708.00;6208965;28;20244;-69
2023/05/20 00:06:17;;;;;;;1.00;1.00;;;;;;;14.31;50.10;102704.19;6241416;28;20236;-68
2023/05/20 00:09:39;;;;;;;1.13;1.03;;;;;;;14.29;50.19;102710.72;6235854;28;20861;-68
2023/05/20 00:13:00;;;;;;;1.10;1.00;;;;;;;14.32;50.15;102705.06;6219689;28;20316;-69
2023/05/20 00:16:22;;;;;;;0.57;0.57;;;;;;;14.39;49.74;102712.63;6242140;28;20228;-68
2023/05/20 00:19:45;;;;;;;1.63;1.53;;;;;;;14.36;50.00;102704.72;6224938;28;20233;-68
2023/05/20 00:23:05;;;;;;;2.10;1.20;;;;;;;14.25;50.23;102714.59;6233435;28;20260;-69
2023/05/20 00:26:28;;;;;;;1.93;1.83;;;;;;;14.30;50.21;102709.75;6240318;28;20225;-68
2023/05/20 00:29:51;;;;;;;1.90;1.50;;;;;;;14.25;50.48;102707.34;6244537;28;20235;-69
2023/05/20 00:33:13;;;;;;;1.00;1.00;;;;;;;14.11;50.26;102712.06;6239677;28;20232;-68
2023/05/20 00:36:35;;;;;;;0.57;0.57;;;;;;;14.13;50.38;102702.84;6225953;28;20263;-68
2023/05/20 00:39:56;;;;;;;2.30;0.80;;;;;;;14.13;50.50;102710.97;6232778;28;20240;-67
2023/05/20 00:43:16;;;;;;;0.83;0.83;;;;;;;14.13;50.74;102713.69;6221112;28;20855;-68
2023/05/20 00:46:37;;;;;;;1.00;0.90;;;;;;;14.15;50.75;102708.16;6237486;28;20303;-69
2023/05/20 00:50:00;;;;;;;1.73;0.87;;;;;;;14.03;50.93;102706.34;6230550;28;20225;-68
2023/05/20 00:53:21;;;;;;;1.30;0.90;;;;;;;14.10;50.71;102700.34;6222077;28;20235;-68
2023/05/20 00:56:43;;;;;;;0.70;0.70;;;;;;;14.07;50.73;102695.16;6241340;28;20244;-67
2023/05/20 01:00:07;;;;;;;1.03;0.90;;;;;;;14.20;50.69;102696.00;6231613;28;20619;-67
2023/05/20 01:03:29;;;;;;;1.77;1.67;;;;;;;14.09;51.02;102687.78;6233191;28;20228;-68
2023/05/20 01:06:51;;;;;;;1.40;0.77;;;;;;;14.13;50.93;102694.72;6222051;28;20227;-68
2023/05/20 01:10:12;;;;;;;0.60;0.60;;;;;;;14.08;50.97;102693.31;6214680;28;20510;-68
2023/05/20 01:13:40;;;;;;;1.20;1.13;;;;;;;14.00;51.38;102696.59;6225627;28;20308;-68
2023/05/20 01:17:08;;;;;;;0.67;0.67;;;;;;;13.99;51.32;102692.16;6231753;28;20228;-68
2023/05/20 01:20:31;;;;;;;0.73;0.73;;;;;;;13.96;51.54;102691.50;6235364;28;20228;-67
2023/05/20 01:23:54;;;;;;;0.60;0.60;;;;;;;13.90;51.60;102684.69;6237256;28;20232;-67
2023/05/20 01:27:15;;;;;;;0.63;0.63;;;;;;;13.85;52.09;102697.72;6233423;28;20544;-67
2023/05/20 01:30:41;;;;;;;0.80;0.80;;;;;;;13.87;51.74;102693.03;6234322;28;20220;-69
2023/05/20 01:34:03;;;;;;;0.90;0.90;;;;;;;13.85;51.85;102684.16;6231814;28;20232;-69
2023/05/20 01:37:25;;;;;;;0.70;0.70;;;;;;;13.84;52.55;102685.16;6204949;28;20252;-68
2023/05/20 01:40:48;;;;;;;0.70;0.70;;;;;;;13.81;52.31;102687.22;6224760;28;20244;-68
2023/05/20 01:44:09;;;;;;;0.60;0.60;;;;;;;13.81;52.40;102684.53;6229657;28;20231;-68
2023/05/20 01:47:31;;;;;;;1.10;1.00;;;;;;;13.81;52.64;102693.50;6220748;28;20240;-69
2023/05/20 01:50:52;;;;;;;1.13;0.97;;;;;;;13.64;53.21;102694.72;6221003;28;20224;-69
2023/05/20 01:54:12;;;;;;;0.70;0.70;;;;;;;13.59;53.18;102693.34;6238816;28;20240;-68
2023/05/20 01:57:35;;;;;;;0.60;0.60;;;;;;;13.61;53.44;102697.69;6203055;28;20323;-68
2023/05/20 02:00:58;;;;;;;0.40;0.40;;;;;;;13.64;53.29;102691.19;6225583;28;20232;-68
2023/05/20 02:04:21;;;;;;;1.27;0.90;;;;;;;13.61;53.65;102691.38;6226438;28;20236;-69
2023/05/20 02:07:42;;;;;;;0.60;0.60;;;;;;;13.52;54.05;102689.31;6209854;28;20231;-67
2023/05/20 02:11:02;;;;;;;2.53;1.10;;;;;;;13.51;54.64;102693.03;6252646;28;20274;-68
2023/05/20 02:14:24;;;;;;;0.70;0.70;;;;;;;13.43;54.98;102692.72;6249485;28;20231;-69
2023/05/20 02:17:46;;;;;;;5.37;1.33;;;;;;;13.43;56.18;102684.59;6226987;28;20228;-68
2023/05/20 02:21:08;;;;;;;1.00;0.90;;;;;;;13.35;56.64;102689.69;6230019;28;20336;-68
2023/05/20 02:24:29;;;;;;;1.13;0.90;;;;;;;13.38;57.29;102693.03;6240648;28;20624;-68
2023/05/20 02:27:50;;;;;;;0.80;0.80;;;;;;;13.41;58.08;102686.56;6229652;28;20231;-68
2023/05/20 02:31:12;;;;;;;0.73;0.73;;;;;;;13.37;58.56;102674.19;6239077;28;20240;-68
2023/05/20 02:34:33;;;;;;;0.70;0.57;;;;;;;13.34;59.33;102669.88;6230868;28;20244;-68
2023/05/20 02:37:54;;;;;;;0.80;0.80;;;;;;;13.36;59.69;102667.03;6227397;28;20241;-68
2023/05/20 02:41:15;;;;;;;0.97;0.97;;;;;;;13.33;60.11;102664.56;6241405;28;20236;-69
2023/05/20 02:44:39;;;;;;;0.90;0.90;;;;;;;13.37;60.43;102669.63;6227006;28;20231;-69
2023/05/20 02:48:02;;;;;;;0.80;0.80;;;;;;;13.25;60.66;102666.94;6220769;28;20634;-69
2023/05/20 02:51:23;;;;;;;0.77;0.73;;;;;;;13.28;60.89;102669.44;6228248;28;20229;-69
2023/05/20 02:54:47;;;;;;;1.23;0.80;;;;;;;13.22;61.45;102665.34;6229517;28;20244;-69
2023/05/20 02:58:08;;;;;;;1.57;0.90;;;;;;;13.19;62.02;102673.66;6221151;28;20215;-68
2023/05/20 03:01:29;;;;;;;0.97;0.90;;;;;;;13.22;62.26;102664.47;6236031;28;20228;-67
2023/05/20 03:04:52;;;;;;;2.97;1.43;;;;;;;13.20;62.22;102666.41;6245637;28;20224;-68
2023/05/20 03:08:14;;;;;;;0.83;0.83;;;;;;;13.26;62.40;102674.97;6214513;28;20244;-68
2023/05/20 03:11:35;;;;;;;4.20;1.20;;;;;;;13.23;62.72;102683.28;6236534;28;20252;-67
2023/05/20 03:14:57;;;;;;;1.03;0.77;;;;;;;13.18;63.40;102690.91;6227473;28;20977;-68
2023/05/20 03:18:20;;;;;;;3.03;0.90;;;;;;;13.18;63.01;102680.06;6225889;28;20236;-68
2023/05/20 03:21:43;;;;;;;3.23;1.17;;;;;;;13.24;63.23;102678.75;6230605;28;20601;-69
2023/05/20 03:25:05;;;;;;;0.87;0.73;;;;;;;13.17;63.73;102681.03;6207277;28;20259;-68
2023/05/20 03:28:26;;;;;;;1.67;1.00;;;;;;;13.12;63.99;102675.06;6214151;28;20248;-67
2023/05/20 03:31:47;;;;;;;0.87;0.87;;;;;;;13.14;64.27;102674.97;6219727;28;20644;-68
2023/05/20 03:35:08;;;;;;;1.07;1.07;;;;;;;13.12;64.66;102672.34;6204297;28;20233;-68
2023/05/20 03:38:31;;;;;;;0.57;0.57;;;;;;;13.05;64.91;102670.19;6235761;28;20546;-68
2023/05/20 03:41:53;;;;;;;0.73;0.73;;;;;;;13.04;65.05;102674.72;6239374;28;20256;-67
2023/05/20 03:45:13;;;;;;;0.80;0.80;;;;;;;13.05;65.69;102675.59;6234217;28;20329;-68
2023/05/20 03:48:42;;;;;;;1.33;1.10;;;;;;;13.03;65.40;102666.69;6211473;28;20228;-67
2023/05/20 03:52:03;;;;;;;2.90;0.90;;;;;;;13.10;65.64;102670.75;6234167;28;20233;-68
2023/05/20 03:55:26;;;;;;;1.90;0.70;;;;;;;13.12;66.43;102666.94;6242012;28;20228;-68
2023/05/20 03:58:48;;;;;;;0.70;0.70;;;;;;;13.08;66.43;102664.56;6222793;28;20705;-70
2023/05/20 04:02:09;;;;;;;0.40;0.40;;;;;;;13.05;66.78;102667.50;6247507;28;20705;-68
2023/05/20 04:05:31;;;;;;;0.70;0.70;;;;;;;13.14;66.60;102667.69;6238676;28;20232;-67
2023/05/20 04:08:53;;;;;;;4.73;1.30;;;;;;;13.29;66.89;102671.16;6225721;28;20847;-69
2023/05/20 04:12:18;;;;;;;7.53;0.93;;;;;;;13.28;67.20;102675.72;6224505;28;20236;-68
2023/05/20 04:15:40;;;;;;;0.70;0.70;;;;;;;13.30;67.87;102679.19;6242027;28;20251;-68
2023/05/20 04:19:01;;;;;;;1.10;1.10;;;;;;;13.39;67.81;102683.94;6226722;28;20518;-68
2023/05/20 04:22:22;;;;;;;0.80;0.80;;;;;;;13.35;68.30;102681.56;6232264;28;20244;-69
2023/05/20 04:25:43;;;;;;;0.83;0.60;;;;;;;13.48;68.27;102676.97;6219701;28;20228;-69
2023/05/20 04:29:05;;;;;;;1.63;0.70;;;;;;;13.37;68.40;102682.31;6213800;28;20236;-68
2023/05/20 04:32:27;;;;;;;1.23;1.00;;;;;;;13.48;69.11;102679.69;6228251;28;20319;-69
2023/05/20 04:35:48;;;;;;;0.80;0.70;;;;;;;13.53;68.67;102682.94;6225382;28;20244;-69
2023/05/20 04:39:09;;;;;;;1.13;0.70;;;;;;;13.62;69.03;102671.44;6231490;28;20232;-69
2023/05/20 04:42:30;;;;;;;2.50;2.07;;;;;;;13.62;69.02;102682.28;6232398;28;20244;-68
2023/05/20 04:45:53;;;;;;;1.07;1.07;;;;;;;13.52;69.24;102667.66;6224109;28;20228;-68
2023/05/20 04:49:14;;;;;;;0.67;0.60;;;;;;;13.62;69.34;102666.03;6221757;28;20323;-68
2023/05/20 04:52:35;;;;;;;0.60;0.60;;;;;;;13.71;69.44;102667.19;6215766;28;20322;-68
2023/05/20 04:55:56;;;;;;;1.00;0.83;;;;;;;13.68;69.61;102675.53;6242183;28;20237;-70
2023/05/20 04:59:18;;;;;;;0.60;0.60;;;;;;;13.79;69.38;102676.47;6233516;28;22055;-69
2023/05/20 05:02:40;;;;;;;1.23;1.03;;;;;;;13.94;69.37;102677.19;6221876;28;20223;-67
2023/05/20 05:06:00;;;;;;;1.37;1.23;;;;;;;13.80;69.72;102675.50;6229161;28;20554;-68
2023/05/20 05:09:22;;;;;;;3.10;1.27;;;;;;;13.95;69.61;102679.81;6248240;28;20231;-69
2023/05/20 05:12:43;;;;;;;2.20;1.00;;;;;;;13.95;69.73;102665.38;6234053;28;20224;-68
2023/05/20 05:16:05;;;;;;;0.97;0.60;;;;;;;13.95;69.93;102666.25;6241533;28;20237;-68
2023/05/20 05:19:28;;;;;;;0.83;0.83;;;;;;;13.94;69.69;102671.78;6201912;28;20624;-68
2023/05/20 05:22:49;;;;;;;1.33;0.83;;;;;;;13.96;69.84;102673.41;6213539;28;20637;-68
2023/05/20 05:26:10;;;;;;;1.70;1.23;;;;;;;13.90;70.07;102673.84;6219269;28;20368;-68
2023/05/20 05:29:32;;;;;;;0.73;0.60;;;;;;;13.92;70.11;102679.16;6220270;28;20327;-69
2023/05/20 05:32:53;;;;;;;1.27;1.10;;;;;;;14.05;69.83;102672.72;6217024;28;20595;-68
2023/05/20 05:36:15;;;;;;;0.80;0.80;;;;;;;13.96;69.94;102673.41;6221347;28;20601;-69
2023/05/20 05:39:37;;;;;;;0.93;0.90;;;;;;;14.19;69.69;102680.69;6225582;28;20253;-68
2023/05/20 05:42:58;;;;;;;0.87;0.87;;;;;;;14.11;69.97;102677.69;6219189;28;20338;-69
2023/05/20 05:46:19;;;;;;;0.73;0.70;;;;;;;14.28;69.57;102680.03;6228593;28;20236;-68
2023/05/20 05:49:40;;;;;;;1.97;1.00;;;;;;;14.34;69.16;102678.69;6223167;28;20525;-69
2023/05/20 05:53:02;;;;;;;2.00;0.90;;;;;;;14.36;69.16;102683.03;6212496;28;20609;-68
2023/05/20 05:56:24;;;;;;;5.43;1.10;;;;;;;14.42;68.79;102684.41;6240588;28;20239;-68
2023/05/20 05:59:45;;;;;;;3.07;1.23;;;;;;;14.41;68.59;102678.09;6232665;28;20484;-69
2023/05/20 06:03:06;;;;;;;3.80;1.13;;;;;;;14.48;68.49;102677.66;6220761;28;20231;-68
2023/05/20 06:06:31;;;;;;;1.10;0.80;;;;;;;14.43;68.50;102669.00;6223296;28;21020;-69
2023/05/20 06:09:53;;;;;;;1.30;0.60;;;;;;;14.47;68.47;102675.91;6222665;28;20336;-68
2023/05/20 06:13:13;;;;;;;1.30;1.20;;;;;;;14.68;68.26;102671.53;6244607;28;20237;-69
2023/05/20 06:16:35;;;;;;;2.50;1.67;;;;;;;14.82;67.87;102666.78;6232208;28;20326;-69
2023/05/20 06:19:56;;;;;;;1.97;1.67;;;;;;;14.89;67.56;102669.88;6222975;28;20706;-69
2023/05/20 06:23:16;;;;;;;3.83;2.23;;;;;;;15.11;67.18;102670.78;6224559;28;20232;-69
2023/05/20 06:26:49;;;;;;;1.63;1.00;;;;;;;15.17;66.59;102666.69;6224880;28;20236;-69
2023/05/20 06:30:12;;;;;;;1.67;1.13;;;;;;;15.24;66.04;102659.81;6235554;28;20229;-68
2023/05/20 06:33:32;;;;;;;2.83;2.03;;;;;;;15.44;65.55;102653.66;6230581;28;20223;-67
2023/05/20 06:36:58;;;;;;;4.23;1.87;;;;;;;15.54;65.21;102651.06;6214112;28;20249;-69
2023/05/20 06:40:19;;;;;;;1.77;1.00;;;;;;;15.73;64.77;102649.41;6222835;28;20251;-69
2023/05/20 06:43:42;;;;;;;1.23;1.23;;;;;;;16.06;64.17;102653.06;6230192;28;20240;-68
2023/05/20 06:47:05;;;;;;;1.13;1.03;;;;;;;15.85;63.94;102647.56;6246031;28;20572;-69
2023/05/20 06:50:27;;;;;;;0.77;0.77;;;;;;;16.10;63.54;102635.50;6233143;28;20232;-68
2023/05/20 06:53:48;;;;;;;3.27;1.87;;;;;;;16.28;63.22;102636.66;6232519;28;20232;-68
2023/05/20 06:57:10;;;;;;;3.13;1.83;;;;;;;16.27;62.50;102641.22;6217179;28;20229;-68
2023/05/20 07:00:33;;;;;;;1.27;1.20;;;;;;;16.34;62.34;102633.41;6223517;28;20221;-68
2023/05/20 07:03:55;;;;;;;3.20;0.80;;;;;;;16.29;62.24;102624.78;6227937;28;20236;-68
2023/05/20 07:07:16;;;;;;;2.40;1.77;;;;;;;16.35;61.99;102627.84;6216546;28;20633;-69
2023/05/20 07:10:38;;;;;;;2.00;0.80;;;;;;;16.52;61.96;102629.16;6234879;28;20220;-69
2023/05/20 07:13:59;;;;;;;2.00;1.03;;;;;;;16.70;61.23;102636.63;6233765;28;20224;-69
2023/05/20 07:17:22;;;;;;;2.00;0.80;;;;;;;16.87;60.89;102628.84;6214232;28;20660;-69
2023/05/20 07:20:44;;;;;;;0.97;0.93;;;;;;;16.78;61.16;102630.50;6213062;28;20237;-69
2023/05/20 07:24:17;;;;;;;3.00;2.10;;;;;;;17.03;60.83;102630.06;6235482;28;20327;-69
2023/05/20 07:27:37;;;;;;;2.63;2.20;;;;;;;16.98;60.63;102637.78;6223244;28;20307;-68
2023/05/20 07:30:59;;;;;;;2.43;1.37;;;;;;;17.00;60.24;102641.22;6250188;28;20252;-69
2023/05/20 07:34:24;;;;;;;1.77;1.10;;;;;;;17.12;59.85;102623.81;6236195;28;20226;-68
2023/05/20 07:37:45;;;;;;;1.40;0.93;;;;;;;17.17;59.79;102626.97;6209751;28;20311;-69
2023/05/20 07:41:06;;;;;;;1.27;1.00;;;;;;;17.23;59.90;102623.72;6228850;28;20590;-69
2023/05/20 07:44:28;;;;;;;1.57;1.17;;;;;;;17.48;59.37;102627.84;6222461;28;20231;-69
2023/05/20 07:47:49;;;;;;;0.60;0.60;;;;;;;17.37;59.23;102636.13;6217599;28;20236;-68
2023/05/20 07:51:14;;;;;;;0.93;0.77;;;;;;;17.72;59.24;102622.06;6226275;28;20248;-68
2023/05/20 07:54:35;;;;;;;3.70;1.70;;;;;;;17.98;58.49;102618.66;6220338;28;20228;-68
2023/05/20 07:57:57;;;;;;;1.13;1.13;;;;;;;18.33;57.75;102615.41;6199804;28;20233;-68
2023/05/20 08:01:19;;;;;;;1.40;1.30;;;;;;;17.95;57.23;102615.34;6226450;28;20236;-68
2023/05/20 08:04:39;;;;;;;1.00;0.88;;;;;;;17.90;56.66;102620.41;6234790;28;20231;-69
2023/05/20 08:08:02;;;;;;;1.88;1.15;;;;;;;18.25;56.30;102618.00;6213537;28;20232;-68
2023/05/20 08:11:29;;;;;;;1.40;1.30;;;;;;;17.87;56.02;102618.81;6231528;28;20311;-67
2023/05/20 08:14:53;;;;;;;1.30;1.10;;;;;;;18.23;55.74;102620.00;6233251;28;20231;-69
2023/05/20 08:18:15;;;;;;;0.85;0.85;;;;;;;18.53;55.30;102613.53;6209380;28;20343;-68
2023/05/20 08:21:36;;;;;;;2.25;1.00;;;;;;;18.64;54.56;102614.25;6230641;28;20236;-70
2023/05/20 08:24:58;;;;;;;1.75;1.00;;;;;;;18.85;54.11;102606.75;6224106;28;20653;-69
2023/05/20 08:28:20;;;;;;;1.85;1.75;;;;;;;18.78;53.60;102608.31;6222798;28;20232;-69
2023/05/20 08:31:41;;;;;;;0.87;0.80;;;;;;;18.48;52.86;102603.06;6227299;28;20243;-69
2023/05/20 08:35:03;;;;;;;1.33;1.10;;;;;;;18.38;53.07;102600.28;6234009;28;20236;-69
2023/05/20 08:38:25;;;;;;;1.65;1.20;;;;;;;18.63;52.63;102606.22;6213806;28;20553;-69
2023/05/20 08:41:47;;;;;;;0.77;0.77;;;;;;;18.70;52.37;102594.53;6231036;28;20509;-68
2023/05/20 08:45:11;;;;;;;1.02;0.88;;;;;;;18.76;52.06;102591.22;6246071;28;20228;-68
2023/05/20 08:48:33;;;;;;;1.48;1.35;;;;;;;19.31;51.58;102585.84;6205158;28;20228;-69
2023/05/20 08:51:54;;;;;;;1.20;1.10;;;;;;;19.40;50.99;102593.19;6236907;28;20228;-68
2023/05/20 08:55:22;;;;;;;1.60;1.00;;;;;;;19.36;51.19;102584.41;6237336;28;20229;-68
2023/05/20 08:58:45;;;;;;;0.90;0.88;;;;;;;19.65;50.93;102590.56;6239216;28;20219;-69
2023/05/20 09:02:07;;;;;;;1.10;1.10;;;;;;;19.81;49.46;102584.44;6235095;28;20240;-70
2023/05/20 09:05:28;;;;;;;0.90;0.90;;;;;;;19.79;49.71;102586.47;6249704;28;20573;-68
2023/05/20 09:08:51;;;;;;;1.00;0.95;;;;;;;19.90;49.89;102578.06;6230090;28;20227;-69
2023/05/20 09:12:13;;;;;;;1.42;1.13;;;;;;;19.52;49.93;102583.75;6245924;28;20228;-68
2023/05/20 09:15:36;;;;;;;1.05;0.98;;;;;;;20.01;49.25;102587.88;6221546;28;20224;-68
2023/05/20 09:18:57;;;;;;;3.00;1.65;;;;;;;20.02;48.83;102578.66;6236885;28;20318;-69
2023/05/20 09:22:22;;;;;;;1.77;0.95;;;;;;;20.22;48.62;102566.56;6231166;28;21236;-69
2023/05/20 09:25:43;;;;;;;1.10;0.88;;;;;;;19.83;48.81;102575.06;6223856;28;20246;-69
2023/05/20 09:29:04;;;;;;;0.60;0.60;;;;;;;19.37;49.58;102560.66;6240630;28;20224;-69
2023/05/20 09:32:27;;;;;;;1.98;0.90;;;;;;;19.76;49.05;102562.13;6225875;28;20236;-69
2023/05/20 09:35:49;;;;;;;3.47;1.50;;;;;;;19.55;49.14;102553.34;6235352;28;20319;-68
2023/05/20 09:39:14;;;;;;;0.80;0.80;;;;;;;19.31;49.52;102545.69;6220298;28;20261;-72
2023/05/20 09:42:40;;;;;;;0.70;0.70;;;;;;;19.60;49.50;102559.22;6222752;28;20315;-69
2023/05/20 09:46:02;;;;;;;1.92;0.88;;;;;;;19.27;49.79;102551.59;6240965;28;20336;-68
2023/05/20 09:49:26;;;;;;;2.22;1.05;;;;;;;18.93;50.17;102556.78;6245790;28;20227;-69
2023/05/20 09:52:48;;;;;;;1.92;1.10;;;;;;;18.94;50.30;102556.63;6222232;28;20502;-69
2023/05/20 09:56:09;;;;;;;1.50;1.08;;;;;;;18.94;50.07;102544.84;6248313;28;20262;-69
2023/05/20 09:59:31;;;;;;;0.88;0.88;;;;;;;18.96;50.27;102546.41;6232184;28;20628;-69
2023/05/20 10:02:52;;;;;;;1.05;0.98;;;;;;;18.65;50.74;102549.56;6227919;28;20236;-69
2023/05/20 10:06:37;;;;;;;8.30;1.08;;;;;;;18.73;50.64;102550.50;6249306;28;20233;-69
2023/05/20 10:10:09;;;;;;;2.85;1.55;;;;;;;18.81;50.59;102541.59;6249840;28;20232;-69
2023/05/20 10:13:48;;;;;;;0.93;0.83;;;;;;;18.93;50.44;102538.53;6232915;28;20225;-68
2023/05/20 10:17:16;;;;;;;3.40;2.10;;;;;;;18.84;50.82;102538.53;6240758;28;20623;-70
2023/05/20 10:20:46;;;;;;;1.90;1.52;;;;;;;18.80;51.00;102537.97;6226851;28;20337;-68
2023/05/20 10:24:09;;;;;;;1.25;1.15;;;;;;;18.92;50.47;102525.00;6241601;28;20227;-68
2023/05/20 10:27:30;;;;;;;1.67;0.95;;;;;;;19.14;50.59;102528.22;6247158;28;20228;-68
2023/05/20 10:30:51;;;;;;;1.42;1.27;;;;;;;18.98;50.56;102527.13;6239791;28;20236;-68
2023/05/20 10:34:16;;;;;;;3.67;1.38;;;;;;;18.84;50.72;102524.88;6231137;28;20233;-68
2023/05/20 10:37:42;;;;;;;2.38;0.85;;;;;;;18.79;50.98;102530.81;6223698;28;20718;-69
2023/05/20 10:41:10;;;;;;;2.20;0.88;;;;;;;18.70;51.16;102512.56;6251363;28;20261;-68
2023/05/20 10:44:40;;;;;;;0.60;0.60;;;;;;;18.81;51.28;102520.59;6243447;28;20239;-68
2023/05/20 10:48:01;;;;;;;1.05;0.88;;;;;;;19.31;50.54;102507.41;6203502;28;20305;-69
2023/05/20 10:51:22;;;;;;;1.10;1.00;;;;;;;19.37;50.57;102514.16;6243961;28;20540;-68
2023/05/20 10:54:44;;;;;;;3.50;1.55;;;;;;;19.48;50.66;102506.59;6245056;28;20228;-68
2023/05/20 10:58:07;;;;;;;1.13;0.82;;;;;;;19.68;49.96;102507.31;6230937;28;20240;-68
2023/05/20 11:01:28;;;;;;;1.52;1.42;;;;;;;20.09;49.38;102503.94;6232546;28;20240;-69
2023/05/20 11:04:49;;;;;;;1.27;1.05;;;;;;;20.02;48.96;102502.88;6234946;28;20228;-69
2023/05/20 11:08:10;;;;;;;1.05;0.93;;;;;;;19.57;49.58;102491.97;6228152;28;20228;-69
2023/05/20 11:11:31;;;;;;;3.28;0.93;;;;;;;19.24;50.33;102491.72;6238094;28;20224;-68
2023/05/20 11:14:53;;;;;;;2.42;1.33;;;;;;;19.16;50.53;102492.50;6247182;28;20332;-69
2023/05/20 11:18:14;;;;;;;3.97;0.70;;;;;;;19.37;50.41;102489.53;6224842;28;20232;-69
2023/05/20 11:21:42;;;;;;;2.80;1.70;;;;;;;19.30;50.99;102488.38;6239555;28;20229;-69
2023/05/20 11:25:06;;;;;;;3.22;2.25;;;;;;;19.27;50.62;102485.97;6245369;28;20491;-69
2023/05/20 11:28:26;;;;;;;1.60;1.50;;;;;;;19.62;50.24;102483.31;6225697;28;20229;-69
2023/05/20 11:31:50;;;;;;;1.13;1.05;;;;;;;19.72;50.04;102482.22;6241179;28;20352;-69
2023/05/20 11:35:22;;;;;;;1.95;1.15;;;;;;;19.32;50.04;102484.47;6239995;28;20570;-68
2023/05/20 11:38:46;;;;;;;0.80;0.80;;;;;;;19.00;50.41;102471.28;6245215;28;20652;-69
2023/05/20 11:42:07;;;;;;;0.80;0.80;;;;;;;18.96;50.67;102469.88;6232058;28;20233;-69
2023/05/20 11:45:39;;;;;;;1.45;1.35;;;;;;;18.92;51.33;102475.81;6243679;28;20737;-69
2023/05/20 11:49:01;;;;;;;1.45;1.35;;;;;;;18.94;51.12;102474.63;6211196;28;20351;-69
2023/05/20 11:52:22;;;;;;;2.90;1.67;;;;;;;18.65;51.51;102473.88;6244936;28;20319;-69
2023/05/20 11:55:48;;;;;;;2.35;1.67;;;;;;;18.51;52.06;102481.69;6234738;28;20224;-69
2023/05/20 11:59:10;;;;;;;1.58;1.48;;;;;;;18.49;52.44;102476.41;6241199;28;20233;-68
2023/05/20 12:02:30;;;;;;;2.38;1.23;;;;;;;18.45;52.46;102483.16;6238484;28;20229;-67
2023/05/20 12:05:53;;;;;;;1.77;0.90;;;;;;;18.28;52.40;102475.69;6240304;28;20463;-68
2023/05/20 12:09:14;;;;;;;2.10;1.80;;;;;;;18.65;52.45;102470.31;6256687;28;20564;-69
2023/05/20 12:12:35;;;;;;;1.95;0.93;;;;;;;19.07;51.27;102464.19;6228475;28;21165;-69
2023/05/20 12:15:56;;;;;;;2.42;1.52;;;;;;;19.52;50.74;102466.97;6235858;28;20224;-69
2023/05/20 12:19:17;;;;;;;8.70;1.55;;;;;;;19.45;50.34;102465.88;6228373;28;20240;-67
2023/05/20 12:22:39;;;;;;;2.35;1.30;;;;;;;18.82;51.80;102459.44;6230251;28;20945;-68
2023/05/20 12:26:00;;;;;;;2.55;2.03;;;;;;;18.86;52.23;102458.13;6227266;28;20228;-68
2023/05/20 12:29:21;;;;;;;1.40;1.33;;;;;;;19.28;51.25;102454.84;6226799;28;20232;-68
2023/05/20 12:32:43;;;;;;;3.60;1.50;;;;;;;19.95;50.22;102447.00;6228563;28;20643;-69
2023/05/20 12:36:05;;;;;;;1.27;1.15;;;;;;;20.33;49.39;102448.53;6258945;28;20243;-69
2023/05/20 12:39:28;;;;;;;1.45;1.10;;;;;;;20.03;48.78;102440.72;6247574;28;20323;-69
2023/05/20 12:42:48;;;;;;;1.50;1.40;;;;;;;20.00;49.39;102450.13;6233028;28;20618;-69
2023/05/20 12:46:09;;;;;;;1.50;1.10;;;;;;;20.02;49.29;102452.72;6242346;28;20701;-69
2023/05/20 12:49:30;;;;;;;2.40;1.52;;;;;;;19.57;50.13;102450.06;6243508;28;20254;-68
2023/05/20 12:52:51;;;;;;;1.88;1.25;;;;;;;19.76;50.17;102447.19;6230920;28;20233;-68
2023/05/20 12:56:13;;;;;;;1.25;1.15;;;;;;;19.56;50.39;102440.16;6245371;28;20228;-69
2023/05/20 12:59:34;;;;;;;1.35;1.15;;;;;;;19.49;50.55;102441.78;6245851;28;20231;-69
2023/05/20 13:02:55;;;;;;;1.30;1.17;;;;;;;19.58;50.18;102443.59;6224551;28;20327;-69
2023/05/20 13:09:51;;;;;;;1.42;1.00;;;;;;;19.72;50.10;102429.34;6049831;29;20706;-69
2023/05/20 13:13:20;;;;;;;1.92;1.35;;;;;;;19.82;50.04;102424.63;6056093;29;20617;-68
2023/05/20 13:16:41;;;;;;;1.75;1.08;;;;;;;19.62;50.50;102409.44;6065938;29;20236;-69
2023/05/20 13:20:02;;;;;;;1.85;1.55;;;;;;;19.20;51.20;102403.69;6055958;29;20245;-68
2023/05/20 13:23:22;;;;;;;1.65;1.15;;;;;;;19.48;50.98;102402.66;6059503;29;20245;-69
2023/05/20 13:26:44;;;;;;;2.17;1.33;;;;;;;20.07;50.19;102404.66;6065913;29;20225;-70
2023/05/20 13:30:08;;;;;;;1.08;1.05;;;;;;;21.16;48.40;102402.00;6054366;29;20233;-68
2023/05/20 13:33:28;;;;;;;1.58;1.45;;;;;;;;;;6048494;29;20623;-70
2023/05/20 13:36:49;;;;;;;2.35;2.17;;;;;;;21.44;46.86;102394.34;6069468;29;20236;-70
2023/05/20 13:40:10;;;;;;;1.08;1.02;;;;;;;20.83;48.29;102405.63;6055097;29;20228;-69
2023/05/20 13:43:32;;;;;;;1.20;1.13;;;;;;;19.94;49.79;102398.75;6055884;29;20237;-69
2023/05/20 13:46:54;;;;;;;2.20;0.95;;;;;;;19.87;50.21;102392.19;6073559;29;20233;-68
2023/05/20 13:50:17;;;;;;;1.45;1.38;;;;;;;19.74;51.07;102392.59;6059721;29;20225;-69
2023/05/20 13:53:38;;;;;;;2.00;0.90;;;;;;;19.42;51.42;102389.56;6050906;29;20277;-69
2023/05/20 13:57:00;;;;;;;1.35;1.25;;;;;;;19.75;51.05;102368.84;6042768;29;20281;-69
2023/05/20 14:00:21;;;;;;;1.27;1.05;;;;;;;19.90;50.97;102370.81;6053233;29;20244;-69
2023/05/20 14:03:43;;;;;;;1.20;1.08;;;;;;;20.23;50.05;102363.72;6062464;29;20309;-69
2023/05/20 14:07:04;;;;;;;1.40;1.27;;;;;;;19.67;50.66;102375.09;6065030;29;20225;-68
2023/05/20 14:10:25;;;;;;;2.78;1.33;;;;;;;19.44;51.18;102371.13;6042866;29;20253;-69
2023/05/20 14:13:46;;;;;;;0.85;0.85;;;;;;;19.25;51.82;102364.94;6055352;29;20217;-68
2023/05/20 14:17:07;;;;;;;0.65;0.65;;;;;;;19.26;52.08;102363.91;6075585;29;20267;-70
2023/05/20 14:20:29;;;;;;;1.67;1.58;;;;;;;19.43;52.16;102354.88;6064692;29;20623;-68
2023/05/20 14:23:50;;;;;;;1.15;1.05;;;;;;;19.65;51.60;102357.97;6058059;29;20237;-70
2023/05/20 14:27:12;;;;;;;1.27;1.17;;;;;;;19.73;51.63;102348.97;6069071;29;20567;-69
2023/05/20 14:30:34;;;;;;;1.45;0.80;;;;;;;19.56;51.91;102344.38;6047309;29;20233;-69
2023/05/20 14:33:54;;;;;;;0.70;0.70;;;;;;;19.46;52.48;102333.53;6058429;29;20860;-70
2023/05/20 14:37:16;;;;;;;1.27;1.20;;;;;;;19.28;52.98;102331.78;6060706;29;20233;-69
2023/05/20 14:40:37;;;;;;;2.17;1.52;;;;;;;19.53;52.65;102331.00;6056454;29;20248;-68
2023/05/20 14:43:58;;;;;;;1.83;1.10;;;;;;;19.70;52.51;102319.19;6058532;29;20265;-68
2023/05/20 14:47:20;;;;;;;1.20;0.85;;;;;;;19.51;52.86;102319.38;6068053;29;20943;-69
2023/05/20 14:50:41;;;;;;;1.92;1.30;;;;;;;19.37;52.99;102319.94;6066090;29;20229;-68
2023/05/20 14:54:04;;;;;;;1.17;1.10;;;;;;;19.35;53.27;102311.91;6056160;29;20539;-68
2023/05/20 14:57:25;;;;;;;1.02;0.90;;;;;;;19.42;53.36;102307.50;6071239;29;20257;-68
2023/05/20 15:00:46;;;;;;;0.80;0.80;;;;;;;19.31;53.83;102304.13;6071476;29;20229;-68
2023/05/20 15:04:07;;;;;;;1.52;1.42;;;;;;;19.12;55.01;102307.91;6053594;29;20233;-69
2023/05/20 15:07:28;;;;;;;1.23;1.13;;;;;;;18.95;56.18;102306.88;6070102;29;20238;-69
2023/05/20 15:10:50;;;;;;;1.38;0.93;;;;;;;18.73;57.42;102299.13;6073740;29;21310;-69
2023/05/20 15:14:11;;;;;;;3.22;1.45;;;;;;;18.53;57.73;102299.41;6059426;29;20234;-69
2023/05/20 15:17:32;;;;;;;2.85;2.30;;;;;;;18.84;57.28;102295.31;6070815;29;20229;-69
2023/05/20 15:20:52;;;;;;;2.20;2.00;;;;;;;18.82;57.33;102309.13;6071385;29;20257;-68
2023/05/20 15:24:13;;;;;;;4.95;2.05;;;;;;;18.80;57.64;102299.38;6061623;29;20237;-69
2023/05/20 15:27:35;;;;;;;2.75;1.50;;;;;;;18.89;57.09;102298.44;6066006;29;20237;-69
2023/05/20 15:30:56;;;;;;;2.58;1.02;;;;;;;19.10;56.98;102299.88;6061403;29;20234;-69
2023/05/20 15:34:18;;;;;;;1.00;0.93;;;;;;;19.29;56.42;102295.22;6053084;29;20236;-69
2023/05/20 15:37:39;;;;;;;2.65;1.73;;;;;;;18.97;56.93;102282.13;6054888;29;20241;-70
2023/05/20 15:40:59;;;;;;;2.70;2.47;;;;;;;18.76;57.69;102292.50;6059642;29;20241;-70
2023/05/20 15:44:21;;;;;;;1.40;1.30;;;;;;;18.69;58.36;102286.78;6053856;29;20245;-69
2023/05/20 15:47:43;;;;;;;1.83;1.58;;;;;;;18.68;58.85;102270.56;6047261;29;20241;-69